Estación Meteorológica Peña el Pijo (Robertgarden) [ 11/12/19 16:23:27 CET ]

Fecha Hora Presion(HPa) Temp (°C) Humedad % Rocio (°C) Viento ( m/s) Direccion Lluvia 1Hora(mm) Lluvia 24H(mm) LLuvia Total(mm)
2019-Jan-28 01:01:54 1005.900 3.5 71 -1.3         167.31
2019-Jan-28 02:01:46 1005.900 3.9 69 -1.3         167.31
2019-Jan-28 03:07:13 1006.400 3.2 68 -2.1         167.31
2019-Jan-28 04:01:49 1005.500 2.1 70 -2.8         167.31
2019-Jan-28 05:01:52 1005.700 0.4 74 -3.7         167.31
2019-Jan-28 06:01:41 1005.400 0.9 76 -2.9         167.31
2019-Jan-28 07:01:38 1005.400 1.0 76 -2.8         167.31
2019-Jan-28 08:01:46 1006.000 1.4 77 -2.2         167.31
2019-Jan-28 09:01:58 1006.400 2.8 75 -1.2         167.31
2019-Jan-28 10:01:49 1005.900 6.1 66 0.2 2.2 N     167.31
2019-Jan-28 11:01:43 1005.500 9.2 52 -0.2         167.31
2019-Jan-28 12:01:58 1005.700 11.8 42 -0.8         167.31
2019-Jan-28 13:01:44 1004.800 11.6 34 -3.8 1.1 WNW     167.31
2019-Jan-28 14:01:44 1004.100 12.9 34 -2.7         167.31
2019-Jan-28 15:02:01 1003.400 12.9 35 -2.3 2.1 WNW     167.31
2019-Jan-28 16:01:48 1003.500 12.5 34 -3.1         167.31
2019-Jan-28 17:01:32 1003.900 10.7 40 -2.4 2.6 NW     167.31
2019-Jan-28 18:01:49 1004.800 7.1 53 -1.9         167.31
2019-Jan-28 19:01:37 1005.200 6.1 62 -0.7         167.31
2019-Jan-28 20:01:44 1005.900 6.5 64 0.2         167.31
2019-Jan-28 21:01:29 1005.900 7.2 66 1.2 3.0 N     167.31
2019-Jan-28 22:01:40 1005.600 7.3 66 1.3         167.31
2019-Jan-28 23:01:48 1006.000 7.2 66 1.2         167.31

Temperatura Máxima:12°    Temperatura Mínima:
Presión Máxima:1006.400 Hpa    Presión Mínima:1003.400 Hpa


Volver